Time;durP1;ratioP1;P1;durP2;ratioP2;P2;SDS_P1;SDS_P2;PMS_P1;PMS_P2;Temp;Humidity;BMP_temperature;BMP_pressure;BME280_temperature;BME280_humidity;BME280_pressure;Samples;Min_cycle;Max_cycle;Signal;HPM_P1;HPM_P2
2022/07/07 00:00:14;;;;;;;5.00;1.80;;;;;;;18.34;100.00;96816.97;5009214;28;104780;-65
2022/07/07 00:02:41;;;;;;;1.80;1.70;;;;;;;18.28;100.00;96817.28;5009373;28;102055;-65
2022/07/07 00:05:08;;;;;;;3.97;2.40;;;;;;;18.18;100.00;96812.00;5009641;28;105586;-65
2022/07/07 00:07:35;;;;;;;2.10;2.00;;;;;;;18.21;100.00;96811.44;5010490;28;102738;-65
2022/07/07 00:10:02;;;;;;;2.07;1.83;;;;;;;18.22;100.00;96813.88;5014519;28;101826;-65
2022/07/07 00:12:29;;;;;;;2.33;1.97;;;;;;;18.19;100.00;96813.63;5010304;28;102728;-65
2022/07/07 00:14:58;;;;;;;3.57;2.10;;;;;;;18.20;100.00;96807.16;5010646;28;101833;-65
2022/07/07 00:17:26;;;;;;;2.57;2.23;;;;;;;18.22;100.00;96808.47;5009581;28;105664;-65
2022/07/07 00:19:53;;;;;;;2.33;2.17;;;;;;;18.28;100.00;96817.28;5010287;28;102791;-65
2022/07/07 00:22:20;;;;;;;2.30;2.20;;;;;;;18.15;100.00;96804.53;5009125;28;102174;-65
2022/07/07 00:24:47;;;;;;;4.37;2.93;;;;;;;18.14;100.00;96801.03;5009269;28;105738;-65
2022/07/07 00:27:14;;;;;;;4.73;2.37;;;;;;;18.15;100.00;96801.84;5010256;28;103131;-65
2022/07/07 00:29:43;;;;;;;3.07;2.33;;;;;;;18.04;100.00;96800.34;5010665;28;101721;-65
2022/07/07 00:32:12;;;;;;;4.13;2.30;;;;;;;18.04;100.00;96800.34;4995948;28;105803;-65
2022/07/07 00:34:39;;;;;;;4.20;2.33;;;;;;;18.09;100.00;96808.38;5009331;28;101974;-65
2022/07/07 00:37:07;;;;;;;2.43;2.23;;;;;;;18.05;100.00;96808.13;5009036;28;104967;-65
2022/07/07 00:39:34;;;;;;;2.00;1.90;;;;;;;18.01;100.00;96809.00;5010000;28;102608;-65
2022/07/07 00:42:01;;;;;;;3.17;2.40;;;;;;;18.02;100.00;96805.22;5009149;28;102086;-65
2022/07/07 00:44:28;;;;;;;2.50;2.10;;;;;;;18.03;100.00;96809.53;5008927;28;104902;-65
2022/07/07 00:46:56;;;;;;;4.73;2.23;;;;;;;17.97;100.00;96811.47;5007886;28;105941;-65
2022/07/07 00:49:25;;;;;;;2.20;2.10;;;;;;;17.96;100.00;96812.56;5008693;28;102033;-65
2022/07/07 00:51:53;;;;;;;2.37;2.17;;;;;;;17.99;100.00;96808.50;5010430;28;102341;-65
2022/07/07 00:54:20;;;;;;;4.13;2.10;;;;;;;17.99;100.00;96803.09;5011479;28;105773;-65
2022/07/07 00:56:48;;;;;;;2.17;1.90;;;;;;;17.93;100.00;96801.56;5010255;28;101718;-65
2022/07/07 00:59:15;;;;;;;4.17;1.90;;;;;;;17.91;100.00;96793.78;5008165;28;105162;-65
2022/07/07 01:01:43;;;;;;;3.27;2.10;;;;;;;17.85;100.00;96800.31;5010303;28;101971;-65
2022/07/07 01:04:12;;;;;;;2.17;2.07;;;;;;;17.86;100.00;96803.78;5008588;28;104930;-65
2022/07/07 01:06:41;;;;;;;4.13;2.10;;;;;;;17.79;100.00;96796.06;5008216;28;105104;-65
2022/07/07 01:09:09;;;;;;;2.00;1.80;;;;;;;17.80;100.00;96799.53;5010294;28;102173;-65
2022/07/07 01:11:47;;;;;;;2.37;1.90;;;;;;;17.80;100.00;96788.78;5010056;28;102414;-65
2022/07/07 01:14:14;;;;;;;2.27;2.03;;;;;;;17.77;100.00;96800.13;5009460;28;102670;-65
2022/07/07 01:16:42;;;;;;;2.30;2.10;;;;;;;17.73;100.00;96793.69;5013692;28;101942;-65
2022/07/07 01:19:09;;;;;;;2.63;2.20;;;;;;;17.69;100.00;96792.66;5009588;28;103143;-65
2022/07/07 01:21:46;;;;;;;3.70;1.97;;;;;;;17.73;100.00;96794.53;5009851;28;101854;-65
2022/07/07 01:24:15;;;;;;;2.67;2.20;;;;;;;17.72;100.00;96797.47;5009975;28;102283;-65
2022/07/07 01:26:43;;;;;;;2.10;1.90;;;;;;;17.72;100.00;96794.78;5009297;28;102645;-65
2022/07/07 01:29:11;;;;;;;2.63;2.00;;;;;;;17.71;100.00;96801.25;5010067;28;102853;-65
2022/07/07 01:31:38;;;;;;;2.93;2.10;;;;;;;17.67;100.00;96800.22;5009730;28;102613;-65
2022/07/07 01:34:05;;;;;;;1.90;1.80;;;;;;;17.65;100.00;96792.44;5009283;28;102606;-65
2022/07/07 01:36:32;;;;;;;4.40;2.20;;;;;;;17.64;100.00;96795.41;5009733;28;102094;-65
2022/07/07 01:39:00;;;;;;;3.13;2.10;;;;;;;17.59;100.00;96798.13;5012524;28;102926;-65
2022/07/07 01:41:29;;;;;;;5.27;2.37;;;;;;;17.67;100.00;96790.28;5008460;28;102005;-65
2022/07/07 01:43:56;;;;;;;2.50;1.97;;;;;;;17.65;100.00;96791.66;5009661;28;102891;-65
2022/07/07 01:46:23;;;;;;;2.40;2.20;;;;;;;17.66;100.00;96787.88;5007589;28;105914;-65
2022/07/07 01:48:50;;;;;;;7.67;2.47;;;;;;;17.69;100.00;96788.09;5009422;28;101866;-65
2022/07/07 01:51:17;;;;;;;2.60;2.30;;;;;;;17.70;100.00;96789.69;5009393;28;102874;-65
2022/07/07 01:53:44;;;;;;;3.37;2.20;;;;;;;17.72;100.00;96784.81;5009023;28;101761;-65
2022/07/07 01:56:11;;;;;;;3.17;2.10;;;;;;;17.71;100.00;96788.59;5008147;28;102041;-65
2022/07/07 01:58:40;;;;;;;3.13;2.00;;;;;;;17.60;100.00;96794.38;5009640;28;102011;-65
2022/07/07 02:01:07;;;;;;;3.93;2.10;;;;;;;17.55;100.00;96789.06;5010799;28;101964;-65
2022/07/07 02:03:35;;;;;;;3.67;1.90;;;;;;;17.50;100.00;96786.41;5009291;28;102337;-65
2022/07/07 02:06:02;;;;;;;2.27;2.07;;;;;;;17.49;100.00;96790.19;5008849;28;102692;-65
2022/07/07 02:08:29;;;;;;;2.70;2.23;;;;;;;17.49;100.00;96790.19;5012542;28;101702;-65
2022/07/07 02:11:15;;;;;;;4.80;2.00;;;;;;;17.53;100.00;96785.84;5011413;28;104089;-65
2022/07/07 02:13:47;;;;;;;2.70;2.17;;;;;;;17.52;100.00;96786.91;5012155;28;102673;-65
2022/07/07 02:16:15;;;;;;;1.80;1.70;;;;;;;17.47;100.00;96789.66;5012803;28;101736;-65
2022/07/07 02:18:43;;;;;;;2.10;1.90;;;;;;;17.39;100.00;96788.38;5011478;28;103626;-65
2022/07/07 02:21:12;;;;;;;2.20;2.00;;;;;;;17.37;100.00;96792.41;5015492;28;102723;-65
2022/07/07 02:23:40;;;;;;;4.00;1.70;;;;;;;17.39;100.00;96792.97;5012340;28;102969;-65
2022/07/07 02:26:08;;;;;;;3.27;1.90;;;;;;;17.37;100.00;96787.84;5012044;28;102686;-65
2022/07/07 02:28:35;;;;;;;4.33;2.03;;;;;;;17.41;100.00;96783.53;5011200;28;101939;-65
2022/07/07 02:31:03;;;;;;;3.87;2.00;;;;;;;17.41;100.00;96786.22;5012578;28;102428;-65
2022/07/07 02:33:30;;;;;;;2.10;1.90;;;;;;;17.41;100.00;96780.03;5011760;28;103117;-65
2022/07/07 02:35:57;;;;;;;4.03;2.13;;;;;;;17.43;100.00;96794.81;5011161;28;101957;-65
2022/07/07 02:38:25;;;;;;;3.17;2.10;;;;;;;17.46;100.00;96794.25;5012522;28;102842;-65
2022/07/07 02:40:53;;;;;;;3.17;1.83;;;;;;;17.47;100.00;96795.84;5011508;28;102539;-65
2022/07/07 02:43:20;;;;;;;1.80;1.70;;;;;;;17.47;100.00;96797.72;5015642;28;101849;-65
2022/07/07 02:45:49;;;;;;;2.17;2.07;;;;;;;17.45;100.00;96798.00;5011869;28;102657;-65
2022/07/07 02:48:19;;;;;;;2.70;1.90;;;;;;;17.47;100.00;96795.03;5010047;28;102034;-65
2022/07/07 02:50:47;;;;;;;3.87;2.07;;;;;;;17.42;100.00;96789.69;5012628;28;102378;-65
2022/07/07 02:53:15;;;;;;;2.40;2.13;;;;;;;17.37;100.00;96795.91;5011234;28;103157;-65
2022/07/07 02:55:43;;;;;;;3.80;2.33;;;;;;;17.34;100.00;96801.06;5012065;28;101823;-65
2022/07/07 02:58:11;;;;;;;3.23;2.20;;;;;;;17.26;100.00;96788.22;5010751;28;105626;-65
2022/07/07 03:00:39;;;;;;;4.53;2.23;;;;;;;17.27;100.00;96795.22;5010274;28;105821;-65
2022/07/07 03:03:09;;;;;;;3.07;2.13;;;;;;;17.26;100.00;96788.22;5011815;28;101976;-65
2022/07/07 03:05:38;;;;;;;2.17;2.07;;;;;;;17.25;100.00;96792.00;5013311;28;103985;-65
2022/07/07 03:08:06;;;;;;;3.63;2.00;;;;;;;17.21;100.00;96794.44;5010533;28;101981;-65
2022/07/07 03:10:34;;;;;;;2.77;1.90;;;;;;;17.21;100.00;96793.63;5010634;28;105303;-65
2022/07/07 03:13:01;;;;;;;4.63;2.20;;;;;;;17.27;100.00;96792.53;5011113;28;102657;-65
2022/07/07 03:15:28;;;;;;;2.23;2.10;;;;;;;17.21;100.00;96791.75;5010560;28;102016;-65
2022/07/07 03:17:56;;;;;;;3.17;2.23;;;;;;;17.24;100.00;96783.13;5009941;28;105300;-65
2022/07/07 03:20:25;;;;;;;2.10;1.90;;;;;;;17.26;100.00;96782.84;5009717;28;105034;-65
2022/07/07 03:22:53;;;;;;;3.23;2.20;;;;;;;17.25;100.00;96786.59;5010306;28;101911;-65
2022/07/07 03:25:20;;;;;;;2.47;2.00;;;;;;;17.15;100.00;96781.31;5010212;28;105533;-65
2022/07/07 03:27:50;;;;;;;2.17;1.90;;;;;;;17.14;100.00;96775.16;5012955;28;105337;-65
2022/07/07 03:30:17;;;;;;;3.20;2.00;;;;;;;17.11;100.00;96783.78;5011616;28;102897;-65
2022/07/07 03:32:45;;;;;;;2.27;2.07;;;;;;;17.09;100.00;96785.13;5009410;28;104319;-65
2022/07/07 03:35:12;;;;;;;2.33;2.13;;;;;;;17.12;100.00;96781.91;5009951;28;102006;-65
2022/07/07 03:37:39;;;;;;;3.60;2.00;;;;;;;17.07;100.00;96780.03;5010109;28;104670;-65
2022/07/07 03:40:10;;;;;;;2.03;1.83;;;;;;;17.04;100.00;96779.81;5009471;28;105487;-65
2022/07/07 03:42:38;;;;;;;3.60;2.07;;;;;;;16.95;100.00;96781.50;5010192;28;102161;-65
2022/07/07 03:45:06;;;;;;;2.20;2.00;;;;;;;16.94;100.00;96778.00;5011195;28;102296;-65
2022/07/07 03:47:34;;;;;;;2.60;2.30;;;;;;;16.94;100.00;96778.00;5008600;28;105608;-65
2022/07/07 03:50:01;;;;;;;4.17;2.23;;;;;;;16.88;100.00;96778.31;5014488;28;101878;-65
2022/07/07 03:52:28;;;;;;;1.90;1.80;;;;;;;16.85;100.00;96768.94;5010493;28;102767;-65
2022/07/07 03:54:55;;;;;;;3.23;2.20;;;;;;;16.93;100.00;96767.53;5011052;28;101836;-65
2022/07/07 03:57:24;;;;;;;2.20;2.00;;;;;;;16.95;100.00;96770.75;5011335;28;102461;-65
2022/07/07 03:59:51;;;;;;;2.40;2.20;;;;;;;16.93;100.00;96767.53;5010558;28;102514;-65
2022/07/07 04:02:19;;;;;;;2.93;2.37;;;;;;;16.91;100.00;96781.25;5009718;28;101867;-65
2022/07/07 04:04:46;;;;;;;2.50;2.30;;;;;;;16.95;100.00;96770.75;5010947;28;102426;-65
2022/07/07 04:07:13;;;;;;;4.87;1.97;;;;;;;16.91;100.00;96765.16;5010326;28;102465;-65
2022/07/07 04:09:40;;;;;;;2.30;2.00;;;;;;;16.94;100.00;96769.16;5014145;28;101873;-65
2022/07/07 04:12:08;;;;;;;2.00;1.90;;;;;;;16.90;100.00;96762.72;5010348;28;102540;-65
2022/07/07 04:14:37;;;;;;;3.10;2.30;;;;;;;16.89;100.00;96771.88;5010577;28;101884;-65
2022/07/07 04:17:05;;;;;;;5.47;2.10;;;;;;;16.95;100.00;96762.69;5010716;28;102525;-65
2022/07/07 04:19:32;;;;;;;3.17;2.20;;;;;;;16.89;100.00;96761.13;5009990;28;102794;-65
2022/07/07 04:21:59;;;;;;;2.50;2.23;;;;;;;16.95;100.00;96768.06;5010613;28;101846;-65
2022/07/07 04:24:26;;;;;;;5.83;2.30;;;;;;;16.92;100.00;96774.00;5010475;28;104376;-65
2022/07/07 04:26:54;;;;;;;2.33;2.07;;;;;;;16.91;100.00;96778.59;5010169;28;102829;-65
2022/07/07 04:29:21;;;;;;;5.00;2.50;;;;;;;16.83;100.00;96775.66;5008376;28;101809;-65
2022/07/07 04:31:50;;;;;;;3.77;2.27;;;;;;;16.81;100.00;96778.66;5013200;28;102390;-65
2022/07/07 04:34:17;;;;;;;2.37;2.17;;;;;;;16.80;100.00;96778.94;5010660;28;101834;-65
2022/07/07 04:36:44;;;;;;;2.43;2.20;;;;;;;16.78;100.00;96771.13;5010604;28;102677;-65
2022/07/07 04:39:11;;;;;;;4.30;2.37;;;;;;;16.89;100.00;96769.97;5009834;28;102645;-65
2022/07/07 04:41:38;;;;;;;2.67;2.13;;;;;;;16.75;100.00;96762.84;5010666;28;101836;-65
2022/07/07 04:44:06;;;;;;;2.47;2.23;;;;;;;16.77;100.00;96768.72;5010318;28;102378;-65
2022/07/07 04:46:34;;;;;;;2.53;2.30;;;;;;;16.80;100.00;96760.94;5009370;28;103155;-65
2022/07/07 04:49:04;;;;;;;4.53;2.40;;;;;;;16.82;100.00;96764.13;5010107;28;101907;-65
2022/07/07 04:51:31;;;;;;;2.47;2.10;;;;;;;16.98;100.00;96754.88;5008659;28;104773;-65
2022/07/07 04:53:59;;;;;;;2.40;2.07;;;;;;;17.16;100.00;96753.38;5011790;28;105363;-65
2022/07/07 04:56:26;;;;;;;2.60;2.40;;;;;;;17.26;100.00;96755.94;5008856;28;106659;-65
2022/07/07 04:58:53;;;;;;;2.63;2.37;;;;;;;17.00;100.00;96746.53;5009867;28;101897;-65
2022/07/07 05:01:20;;;;;;;2.40;2.20;;;;;;;17.22;100.00;96752.25;5008627;28;102176;-65
2022/07/07 05:03:48;;;;;;;2.50;2.30;;;;;;;17.17;100.00;96753.06;5008938;28;105222;-65
2022/07/07 05:06:16;;;;;;;3.07;2.10;;;;;;;17.21;100.00;96756.81;5008082;28;104046;-65
2022/07/07 05:08:44;;;;;;;3.13;2.40;;;;;;;17.22;100.00;96755.72;5008719;28;101823;-65
2022/07/07 05:11:11;;;;;;;2.93;2.40;;;;;;;17.27;100.00;96753.00;5008202;28;106107;-65
2022/07/07 05:13:38;;;;;;;3.20;2.30;;;;;;;17.47;100.00;96760.09;5007602;28;105531;-65
2022/07/07 05:16:07;;;;;;;3.27;2.50;;;;;;;17.28;100.00;96762.66;4995807;28;102177;-65
2022/07/07 05:18:34;;;;;;;2.53;2.20;;;;;;;17.37;100.00;96757.47;5008113;28;104197;-65
2022/07/07 05:21:01;;;;;;;2.40;2.20;;;;;;;17.48;100.00;96753.63;5010044;28;101914;-65
2022/07/07 05:23:31;;;;;;;2.73;2.20;;;;;;;17.38;100.00;96761.78;5008479;28;105119;-65
2022/07/07 05:25:58;;;;;;;2.10;2.00;;;;;;;17.42;100.00;96760.94;5008037;28;105519;-65
2022/07/07 05:28:25;;;;;;;2.20;2.10;;;;;;;17.59;100.00;96757.78;5008229;28;101886;-65
2022/07/07 05:30:53;;;;;;;3.70;2.27;;;;;;;17.75;100.00;96770.00;5008517;28;105296;-65
2022/07/07 05:33:20;;;;;;;3.63;2.20;;;;;;;17.66;100.00;96760.97;5007914;28;105151;-65
2022/07/07 05:35:47;;;;;;;2.80;2.13;;;;;;;17.67;100.00;96768.75;5008450;28;101954;-65
2022/07/07 05:38:14;;;;;;;2.93;2.07;;;;;;;17.66;100.00;96767.13;5011054;28;104904;-65
2022/07/07 05:40:43;;;;;;;2.47;2.10;;;;;;;17.61;100.00;96774.47;5008342;28;102036;-65
2022/07/07 05:43:10;;;;;;;3.93;2.33;;;;;;;17.73;100.00;96770.31;5011833;28;105412;-65
2022/07/07 05:45:37;;;;;;;4.90;2.30;;;;;;;17.72;100.00;96766.00;5011235;28;105529;-65
2022/07/07 05:48:06;;;;;;;3.73;2.30;;;;;;;17.69;100.00;96761.19;5011053;28;101908;-65
2022/07/07 05:50:33;;;;;;;2.63;2.10;;;;;;;17.65;100.00;96770.13;5011271;28;105155;-65
2022/07/07 05:53:00;;;;;;;2.40;2.17;;;;;;;17.47;100.00;96778.91;5011268;28;105571;-65
2022/07/07 05:55:28;;;;;;;4.27;2.43;;;;;;;17.45;100.00;96787.25;5011576;28;101867;-65
2022/07/07 05:57:58;;;;;;;2.77;2.50;;;;;;;17.50;100.00;96789.88;5011604;28;105144;-65
2022/07/07 06:00:25;;;;;;;2.70;2.50;;;;;;;17.49;100.00;96776.75;5014378;28;105346;-65
2022/07/07 06:02:52;;;;;;;2.37;2.17;;;;;;;17.38;100.00;96775.22;5013117;28;102292;-65
2022/07/07 06:05:19;;;;;;;2.77;2.23;;;;;;;17.62;100.00;96781.44;5010738;28;105701;-65
2022/07/07 06:07:47;;;;;;;3.43;2.30;;;;;;;17.66;100.00;96771.72;5011427;28;101926;-65
2022/07/07 06:10:14;;;;;;;3.33;2.43;;;;;;;17.70;100.00;96772.75;5011374;28;105269;-65
2022/07/07 06:12:42;;;;;;;3.73;2.50;;;;;;;17.57;100.00;96782.31;5010817;28;106033;-65
2022/07/07 06:15:12;;;;;;;3.10;2.27;;;;;;;17.26;100.00;96789.03;5011353;28;101922;-65
2022/07/07 06:17:39;;;;;;;3.23;2.40;;;;;;;17.31;100.00;96782.78;5011355;28;105054;-65
2022/07/07 06:20:08;;;;;;;5.93;2.50;;;;;;;17.34;100.00;96787.63;5015587;28;102846;-65
2022/07/07 06:22:35;;;;;;;4.77;2.57;;;;;;;17.22;100.00;96787.19;5011149;28;105532;-65
2022/07/07 06:25:03;;;;;;;3.70;2.40;;;;;;;17.29;100.00;96791.16;5012083;28;101713;-65
2022/07/07 06:27:30;;;;;;;2.57;2.13;;;;;;;17.31;100.00;96794.34;5012241;28;102094;-65
2022/07/07 06:29:57;;;;;;;2.60;2.40;;;;;;;17.26;100.00;96798.97;5010440;28;105506;-65
2022/07/07 06:32:26;;;;;;;4.97;2.53;;;;;;;17.21;100.00;96790.94;5010026;28;104055;-65
2022/07/07 06:34:52;;;;;;;4.90;2.40;;;;;;;17.15;100.00;96797.44;5010611;28;101978;-65
2022/07/07 06:37:20;;;;;;;3.17;2.13;;;;;;;17.30;100.00;96797.31;5011177;28;104786;-65
2022/07/07 06:39:47;;;;;;;3.33;2.63;;;;;;;17.27;100.00;96796.00;5010251;28;105440;-65
2022/07/07 06:42:14;;;;;;;2.30;2.10;;;;;;;17.28;100.00;96805.66;5014206;28;101889;-65
2022/07/07 06:44:43;;;;;;;2.63;2.20;;;;;;;17.36;100.00;96809.63;5010220;28;105221;-65
2022/07/07 06:47:10;;;;;;;4.57;2.40;;;;;;;17.18;100.00;96794.22;5012094;28;101893;-65
2022/07/07 06:49:39;;;;;;;2.73;2.40;;;;;;;17.23;100.00;96803.00;5010445;28;105220;-65
2022/07/07 06:52:07;;;;;;;3.10;2.40;;;;;;;17.18;100.00;96799.59;5011238;28;102655;-65
2022/07/07 06:54:34;;;;;;;2.63;2.20;;;;;;;17.32;100.00;96798.66;5011791;28;101849;-65
2022/07/07 06:57:01;;;;;;;9.07;2.20;;;;;;;17.51;100.00;96793.41;5010726;28;106044;-65
2022/07/07 06:59:28;;;;;;;4.27;2.70;;;;;;;17.45;100.00;96794.53;5011498;28;103246;-65
2022/07/07 07:01:55;;;;;;;4.27;2.67;;;;;;;17.39;100.00;96792.97;5012031;28;102423;-65
2022/07/07 07:04:22;;;;;;;2.50;2.30;;;;;;;17.55;100.00;96787.16;5014875;28;102335;-65
2022/07/07 07:06:51;;;;;;;4.73;2.23;;;;;;;17.81;100.00;96785.81;5010274;28;102061;-65
2022/07/07 07:09:18;;;;;;;3.73;2.63;;;;;;;17.96;100.00;96790.22;5010529;28;105716;-63
2022/07/07 07:11:45;;;;;;;3.10;2.30;;;;;;;17.88;100.00;96786.25;5010006;28;105420;-63
2022/07/07 07:14:13;;;;;;;2.80;1.80;;;;;;;18.03;100.00;96785.31;5010068;28;102003;-63
2022/07/07 07:16:40;;;;;;;4.50;2.10;;;;;;;18.03;100.00;96788.00;5011712;28;102905;-62
2022/07/07 07:19:08;;;;;;;16.23;2.37;;;;;;;18.16;100.00;96787.28;5009802;28;105391;-62
2022/07/07 07:21:34;;;;;;;2.77;2.00;;;;;;;18.27;100.00;96788.75;5011635;28;102206;-62
2022/07/07 07:24:03;;;;;;;4.07;2.13;;;;;;;18.02;100.00;96786.38;5010282;28;106851;-62
2022/07/07 07:26:31;;;;;;;2.43;2.07;;;;;;;18.03;100.00;96782.63;5013205;28;103714;-62
2022/07/07 07:28:58;;;;;;;3.20;2.10;;;;;;;17.99;100.00;96784.25;5010396;28;105167;-62
2022/07/07 07:31:25;;;;;;;2.43;1.80;;;;;;;18.01;100.00;96785.59;5010929;28;102610;-62
2022/07/07 07:33:52;;;;;;;2.53;1.90;;;;;;;18.11;100.00;96779.28;5011646;28;101957;-62
2022/07/07 07:36:20;;;;;;;3.70;2.13;;;;;;;18.28;100.00;96784.97;5009413;28;105774;-62
2022/07/07 07:38:48;;;;;;;4.23;2.00;;;;;;;18.42;100.00;96786.69;5011179;28;102892;-62
2022/07/07 07:41:18;;;;;;;2.77;1.90;;;;;;;18.35;100.00;96785.44;5011555;28;102190;-61
2022/07/07 07:43:45;;;;;;;2.00;1.90;;;;;;;18.33;100.00;96776.84;5010017;28;103667;-62
2022/07/07 07:46:12;;;;;;;2.07;1.60;;;;;;;18.41;100.00;96789.66;5009456;28;105409;-62
2022/07/07 07:48:40;;;;;;;3.57;1.80;;;;;;;18.57;100.00;96786.50;5013056;28;102480;-62
2022/07/07 07:51:07;;;;;;;5.20;2.37;;;;;;;18.86;100.00;96784.44;5010771;28;102634;-62
2022/07/07 07:53:34;;;;;;;2.30;1.83;;;;;;;18.94;100.00;96791.06;5011235;28;102048;-62
2022/07/07 07:56:01;;;;;;;3.57;2.07;;;;;;;18.77;100.00;96788.91;5010827;28;102317;-62
2022/07/07 07:58:29;;;;;;;1.83;1.67;;;;;;;18.98;100.00;96789.38;5010183;28;102735;-62
2022/07/07 08:00:56;;;;;;;2.10;1.90;;;;;;;18.80;100.00;96792.91;5010884;28;101822;-62
2022/07/07 08:03:23;;;;;;;3.10;1.80;;;;;;;19.11;100.00;96786.75;5009529;28;103655;-61
2022/07/07 08:05:51;;;;;;;2.20;1.93;;;;;;;18.96;100.00;96791.59;5007519;28;106017;-61
2022/07/07 08:08:18;;;;;;;1.90;1.80;;;;;;;18.84;100.00;96786.63;5009792;28;102431;-62
2022/07/07 08:10:45;;;;;;;2.90;2.00;;;;;;;19.04;100.00;96790.91;5014019;28;102356;-62
2022/07/07 08:13:12;;;;;;;2.00;1.80;;;;;;;18.68;99.77;96784.44;5011057;28;101821;-62
2022/07/07 08:15:41;;;;;;;3.80;1.60;;;;;;;18.81;98.24;96789.91;5010990;28;102413;-62
2022/07/07 08:18:08;;;;;;;1.97;1.47;;;;;;;18.50;100.00;96786.06;5009918;28;104493;-62
2022/07/07 08:20:35;;;;;;;3.17;1.67;;;;;;;18.70;100.00;96793.81;5010811;28;101811;-62
2022/07/07 08:23:02;;;;;;;3.27;1.70;;;;;;;18.61;100.00;96789.41;5009389;28;105247;-62
2022/07/07 08:25:29;;;;;;;3.00;1.57;;;;;;;19.00;100.00;96785.31;5008822;28;105921;-62
2022/07/07 08:27:56;;;;;;;1.70;1.60;;;;;;;18.79;100.00;96785.88;5010899;28;101686;-61
2022/07/07 08:30:24;;;;;;;2.10;1.57;;;;;;;19.00;100.00;96787.19;5013424;28;101849;-62
2022/07/07 08:32:52;;;;;;;3.43;1.87;;;;;;;19.36;100.00;96782.84;5009399;28;102051;-62
2022/07/07 08:35:19;;;;;;;4.27;1.67;;;;;;;19.01;98.97;96786.91;5010502;28;101879;-62
2022/07/07 08:37:46;;;;;;;1.90;1.57;;;;;;;18.61;99.03;96789.41;5010153;28;102643;-62
2022/07/07 08:40:13;;;;;;;3.43;1.60;;;;;;;18.60;100.00;96787.78;5010265;28;101910;-62
2022/07/07 08:42:42;;;;;;;1.47;1.33;;;;;;;18.59;100.00;96786.19;5010519;28;102300;-62
2022/07/07 08:45:10;;;;;;;3.40;1.30;;;;;;;18.57;100.00;96777.59;5009646;28;103177;-61
2022/07/07 08:47:37;;;;;;;3.40;1.57;;;;;;;18.54;100.00;96783.56;5010086;28;102022;-62
2022/07/07 08:50:07;;;;;;;2.57;1.97;;;;;;;18.29;100.00;96775.78;5010191;28;102322;-62
2022/07/07 08:52:34;;;;;;;3.90;1.70;;;;;;;18.39;100.00;96778.38;5011264;28;106079;-62
2022/07/07 08:55:03;;;;;;;4.57;1.37;;;;;;;18.29;100.00;96770.41;5010294;28;102645;-62
2022/07/07 08:57:30;;;;;;;3.90;1.97;;;;;;;18.32;100.00;96786.03;5009821;28;102833;-62
2022/07/07 08:59:57;;;;;;;1.70;1.60;;;;;;;18.39;100.00;96786.47;5010148;28;101868;-62
2022/07/07 09:02:25;;;;;;;3.23;1.90;;;;;;;18.18;100.00;96785.09;5010108;28;102244;-62
2022/07/07 09:04:52;;;;;;;2.27;1.90;;;;;;;18.16;100.00;96777.31;5009306;28;104265;-61
2022/07/07 09:07:21;;;;;;;4.20;1.90;;;;;;;18.24;100.00;96781.25;5010278;28;101906;-61
2022/07/07 09:09:52;;;;;;;2.43;2.00;;;;;;;18.02;100.00;96786.38;5010073;28;101710;-61
2022/07/07 09:12:20;;;;;;;4.13;2.07;;;;;;;17.90;100.00;96794.88;5009778;28;103007;-62
2022/07/07 09:14:49;;;;;;;3.53;2.03;;;;;;;17.66;100.00;96798.63;5013235;28;101889;-61
2022/07/07 09:17:19;;;;;;;2.73;2.40;;;;;;;17.75;100.00;96792.34;5010653;28;104772;-62
2022/07/07 09:19:58;;;;;;;4.77;1.90;;;;;;;17.80;100.00;96800.34;5013359;28;101819;-61
2022/07/07 09:22:51;;;;;;;2.00;1.90;;;;;;;17.86;100.00;96799.22;5013454;28;102494;-62
2022/07/07 09:25:20;;;;;;;3.10;1.80;;;;;;;18.17;100.00;96805.03;5012752;28;102850;-62
2022/07/07 09:27:53;;;;;;;2.50;2.20;;;;;;;18.15;100.00;96799.16;5011712;28;102034;-62
2022/07/07 09:30:33;;;;;;;2.27;1.93;;;;;;;18.37;100.00;96804.81;5013343;28;102342;-62
2022/07/07 09:33:01;;;;;;;3.37;2.13;;;;;;;18.25;100.00;96799.03;5013123;28;102773;-61
2022/07/07 09:38:23;;;;;;;2.03;1.77;;;;;;;18.10;100.00;96805.38;5014799;28;105574;-62
2022/07/07 09:40:52;;;;;;;3.43;2.30;;;;;;;18.18;100.00;96806.63;5013355;28;101891;-61
2022/07/07 09:43:20;;;;;;;2.60;2.00;;;;;;;18.26;100.00;96806.00;5011922;28;105198;-61
2022/07/07 09:46:05;;;;;;;4.57;2.50;;;;;;;18.55;100.00;96809.41;5012421;28;102788;-61
2022/07/07 09:48:33;;;;;;;2.40;1.97;;;;;;;18.64;100.00;96799.59;5012329;28;101773;-61
2022/07/07 09:51:15;;;;;;;3.27;2.10;;;;;;;18.73;100.00;96800.53;5011644;28;102472;-64
2022/07/07 09:54:00;;;;;;;3.47;2.07;;;;;;;18.62;100.00;96804.47;5012094;28;102619;-64
2022/07/07 09:56:29;;;;;;;2.17;1.90;;;;;;;19.10;100.00;96803.22;5009809;28;102313;-64
2022/07/07 09:58:56;;;;;;;2.40;2.20;;;;;;;19.12;100.00;96811.81;5012726;28;102420;-64
2022/07/07 10:01:26;;;;;;;2.50;2.23;;;;;;;19.12;100.00;96809.13;5014528;28;105830;-64
2022/07/07 10:03:57;;;;;;;2.10;1.90;;;;;;;19.16;100.00;96812.81;5012774;28;102363;-64
2022/07/07 10:06:25;;;;;;;2.10;1.90;;;;;;;19.30;100.00;96809.09;5012492;28;103284;-64
2022/07/07 10:08:57;;;;;;;2.27;1.77;;;;;;;19.36;100.00;96807.94;5011657;28;101943;-64
2022/07/07 10:11:33;;;;;;;2.00;1.70;;;;;;;19.21;100.00;96804.63;5013034;28;102594;-64
2022/07/07 10:14:09;;;;;;;3.50;2.07;;;;;;;19.26;100.00;96808.09;5012394;28;102607;-64
2022/07/07 10:16:37;;;;;;;3.80;1.90;;;;;;;19.06;100.00;96815.66;5012986;28;101986;-64
2022/07/07 10:19:04;;;;;;;2.43;1.80;;;;;;;19.06;100.00;96819.16;5011156;28;105181;-64
2022/07/07 10:21:32;;;;;;;4.90;2.03;;;;;;;19.10;100.00;96822.06;5012066;28;101836;-64
2022/07/07 10:24:00;;;;;;;2.20;2.00;;;;;;;18.87;100.00;96820.28;5016160;28;101700;-64
2022/07/07 10:26:39;;;;;;;3.67;2.20;;;;;;;18.60;100.00;96830.91;5009962;28;104002;-64
2022/07/07 10:29:08;;;;;;;2.90;1.90;;;;;;;18.68;100.00;96824.84;5009910;28;101974;-64
2022/07/07 10:31:36;;;;;;;4.07;2.60;;;;;;;18.45;100.00;96837.28;5012450;28;102481;-64
2022/07/07 10:34:05;;;;;;;2.83;1.93;;;;;;;18.37;100.00;96843.31;5010462;28;105815;-64
2022/07/07 10:37:02;;;;;;;3.93;2.40;;;;;;;18.02;100.00;96845.56;5011030;28;101960;-64
2022/07/07 10:39:33;;;;;;;3.90;2.37;;;;;;;18.12;100.00;96845.47;5011095;28;103934;-64
2022/07/07 10:42:06;;;;;;;3.77;2.90;;;;;;;18.26;100.00;96836.41;5011615;28;102629;-64
2022/07/07 10:44:34;;;;;;;2.90;2.63;;;;;;;18.30;100.00;96839.31;5014450;28;101861;-64
2022/07/07 10:47:05;;;;;;;9.47;3.23;;;;;;;18.25;100.00;96837.50;5009792;28;105855;-64
2022/07/07 10:49:40;;;;;;;2.50;2.30;;;;;;;18.37;100.00;96840.59;5012318;28;101895;-64
2022/07/07 10:52:12;;;;;;;3.90;3.00;;;;;;;18.57;100.00;96834.16;5010690;28;105715;-64
2022/07/07 10:54:41;;;;;;;4.67;2.60;;;;;;;18.44;100.00;96829.50;5010044;28;103948;-64
2022/07/07 10:57:16;;;;;;;3.27;2.70;;;;;;;18.33;100.00;96825.31;5010712;28;101882;-64
2022/07/07 11:00:08;;;;;;;2.80;2.00;;;;;;;18.72;100.00;96840.16;5010809;28;105156;-64
2022/07/07 11:02:38;;;;;;;3.43;2.70;;;;;;;18.79;100.00;96842.47;5011455;28;103141;-64
2022/07/07 11:05:29;;;;;;;4.13;2.40;;;;;;;18.67;100.00;96832.16;5010628;28;101819;-64
2022/07/07 11:08:15;;;;;;;2.90;2.70;;;;;;;18.68;100.00;96846.41;5014836;28;102296;-64
2022/07/07 11:10:51;;;;;;;4.80;2.80;;;;;;;18.58;100.00;96843.88;5011987;28;101824;-64
2022/07/07 11:13:23;;;;;;;2.93;2.57;;;;;;;18.40;100.00;96853.50;5012056;28;102621;-64
2022/07/07 11:15:52;;;;;;;3.33;2.97;;;;;;;18.44;100.00;96841.09;5011140;28;102590;-64
2022/07/07 11:18:20;;;;;;;2.80;2.60;;;;;;;18.58;100.00;96835.78;5012080;28;101711;-64
2022/07/07 11:21:01;;;;;;;3.33;2.67;;;;;;;18.70;100.00;96838.84;5011511;28;102364;-64
2022/07/07 11:23:43;;;;;;;3.67;3.37;;;;;;;18.68;100.00;96832.94;5011506;28;103124;-64
2022/07/07 11:26:11;;;;;;;4.50;2.77;;;;;;;18.63;100.00;96836.50;5011751;28;101767;-64